sensor_id;sensor_type;location;lat;lon;timestamp;P1;durP1;ratioP1;P2;durP2;ratioP2
16137;SDS011;8174;43.550;5.206;2022-09-01T00:01:04;6.82;;;3.88;;
16137;SDS011;8174;43.550;5.206;2022-09-01T00:03:34;5.65;;;3.58;;
16137;SDS011;8174;43.550;5.206;2022-09-01T00:06:02;6.40;;;3.80;;
16137;SDS011;8174;43.550;5.206;2022-09-01T00:08:37;5.90;;;3.60;;
16137;SDS011;8174;43.550;5.206;2022-09-01T00:11:05;7.40;;;3.55;;
16137;SDS011;8174;43.550;5.206;2022-09-01T00:13:32;10.23;;;3.83;;
16137;SDS011;8174;43.550;5.206;2022-09-01T00:16:00;6.28;;;4.00;;
16137;SDS011;8174;43.550;5.206;2022-09-01T00:18:28;6.25;;;3.92;;
16137;SDS011;8174;43.550;5.206;2022-09-01T00:20:57;4.25;;;3.50;;
16137;SDS011;8174;43.550;5.206;2022-09-01T00:23:24;6.38;;;4.07;;
16137;SDS011;8174;43.550;5.206;2022-09-01T00:25:54;7.93;;;4.07;;
16137;SDS011;8174;43.550;5.206;2022-09-01T00:28:21;4.72;;;4.05;;
16137;SDS011;8174;43.550;5.206;2022-09-01T00:30:49;7.95;;;3.50;;
16137;SDS011;8174;43.550;5.206;2022-09-01T00:33:17;4.85;;;3.70;;
16137;SDS011;8174;43.550;5.206;2022-09-01T00:35:45;5.03;;;3.83;;
16137;SDS011;8174;43.550;5.206;2022-09-01T00:38:12;5.00;;;4.00;;
16137;SDS011;8174;43.550;5.206;2022-09-01T00:40:40;5.05;;;3.70;;
16137;SDS011;8174;43.550;5.206;2022-09-01T00:43:13;5.20;;;3.83;;
16137;SDS011;8174;43.550;5.206;2022-09-01T00:45:43;7.47;;;3.90;;
16137;SDS011;8174;43.550;5.206;2022-09-01T00:48:16;4.55;;;3.78;;
16137;SDS011;8174;43.550;5.206;2022-09-01T00:50:46;7.50;;;4.00;;
16137;SDS011;8174;43.550;5.206;2022-09-01T00:53:13;7.32;;;3.92;;
16137;SDS011;8174;43.550;5.206;2022-09-01T00:55:41;4.93;;;3.83;;
16137;SDS011;8174;43.550;5.206;2022-09-01T00:58:09;7.53;;;4.00;;
16137;SDS011;8174;43.550;5.206;2022-09-01T01:00:38;5.53;;;3.75;;
16137;SDS011;8174;43.550;5.206;2022-09-01T01:03:07;7.72;;;4.10;;
16137;SDS011;8174;43.550;5.206;2022-09-01T01:05:36;8.00;;;4.28;;
16137;SDS011;8174;43.550;5.206;2022-09-01T01:08:05;6.15;;;4.05;;
16137;SDS011;8174;43.550;5.206;2022-09-01T01:10:33;5.82;;;3.65;;
16137;SDS011;8174;43.550;5.206;2022-09-01T01:13:05;7.72;;;4.15;;
16137;SDS011;8174;43.550;5.206;2022-09-01T01:15:33;8.13;;;3.78;;
16137;SDS011;8174;43.550;5.206;2022-09-01T01:18:02;6.03;;;3.70;;
16137;SDS011;8174;43.550;5.206;2022-09-01T01:20:30;6.05;;;3.70;;
16137;SDS011;8174;43.550;5.206;2022-09-01T01:23:20;8.07;;;3.88;;
16137;SDS011;8174;43.550;5.206;2022-09-01T01:25:53;7.57;;;3.72;;
16137;SDS011;8174;43.550;5.206;2022-09-01T01:28:22;5.88;;;3.90;;
16137;SDS011;8174;43.550;5.206;2022-09-01T01:30:55;5.63;;;3.65;;
16137;SDS011;8174;43.550;5.206;2022-09-01T01:33:24;6.10;;;3.67;;
16137;SDS011;8174;43.550;5.206;2022-09-01T01:35:53;5.03;;;4.00;;
16137;SDS011;8174;43.550;5.206;2022-09-01T01:38:22;6.13;;;3.88;;
16137;SDS011;8174;43.550;5.206;2022-09-01T01:40:52;6.25;;;4.07;;
16137;SDS011;8174;43.550;5.206;2022-09-01T01:43:20;4.68;;;3.92;;
16137;SDS011;8174;43.550;5.206;2022-09-01T01:45:49;7.20;;;4.00;;
16137;SDS011;8174;43.550;5.206;2022-09-01T01:48:17;6.88;;;3.63;;
16137;SDS011;8174;43.550;5.206;2022-09-01T01:50:47;6.25;;;3.58;;
16137;SDS011;8174;43.550;5.206;2022-09-01T01:53:15;6.93;;;4.07;;
16137;SDS011;8174;43.550;5.206;2022-09-01T01:55:43;5.90;;;3.88;;
16137;SDS011;8174;43.550;5.206;2022-09-01T01:58:14;4.70;;;3.80;;
16137;SDS011;8174;43.550;5.206;2022-09-01T02:00:44;4.22;;;3.65;;
16137;SDS011;8174;43.550;5.206;2022-09-01T02:03:12;5.60;;;3.80;;
16137;SDS011;8174;43.550;5.206;2022-09-01T02:05:41;6.07;;;3.80;;
16137;SDS011;8174;43.550;5.206;2022-09-01T02:08:10;7.47;;;4.07;;
16137;SDS011;8174;43.550;5.206;2022-09-01T02:10:39;5.15;;;3.80;;
16137;SDS011;8174;43.550;5.206;2022-09-01T02:13:08;5.13;;;3.70;;
16137;SDS011;8174;43.550;5.206;2022-09-01T02:15:43;7.18;;;4.22;;
16137;SDS011;8174;43.550;5.206;2022-09-01T02:18:11;4.70;;;3.70;;
16137;SDS011;8174;43.550;5.206;2022-09-01T02:20:40;5.90;;;3.67;;
16137;SDS011;8174;43.550;5.206;2022-09-01T02:23:08;4.30;;;3.90;;
16137;SDS011;8174;43.550;5.206;2022-09-01T02:25:37;8.00;;;4.10;;
16137;SDS011;8174;43.550;5.206;2022-09-01T02:28:08;6.75;;;3.80;;
16137;SDS011;8174;43.550;5.206;2022-09-01T02:30:41;5.47;;;3.70;;
16137;SDS011;8174;43.550;5.206;2022-09-01T02:33:09;5.38;;;3.83;;
16137;SDS011;8174;43.550;5.206;2022-09-01T02:35:42;5.15;;;3.80;;
16137;SDS011;8174;43.550;5.206;2022-09-01T02:38:10;4.15;;;3.75;;
16137;SDS011;8174;43.550;5.206;2022-09-01T02:40:38;5.32;;;3.92;;
16137;SDS011;8174;43.550;5.206;2022-09-01T02:43:10;5.85;;;3.70;;
16137;SDS011;8174;43.550;5.206;2022-09-01T02:45:37;6.47;;;4.05;;
16137;SDS011;8174;43.550;5.206;2022-09-01T02:48:09;5.63;;;3.55;;
16137;SDS011;8174;43.550;5.206;2022-09-01T02:50:38;5.88;;;3.90;;
16137;SDS011;8174;43.550;5.206;2022-09-01T02:53:06;5.80;;;4.00;;
16137;SDS011;8174;43.550;5.206;2022-09-01T02:55:36;5.63;;;3.75;;
16137;SDS011;8174;43.550;5.206;2022-09-01T02:58:04;6.97;;;3.90;;
16137;SDS011;8174;43.550;5.206;2022-09-01T03:00:34;7.35;;;3.92;;
16137;SDS011;8174;43.550;5.206;2022-09-01T03:03:04;5.30;;;3.97;;
16137;SDS011;8174;43.550;5.206;2022-09-01T03:05:34;4.32;;;3.92;;
16137;SDS011;8174;43.550;5.206;2022-09-01T03:08:03;6.75;;;3.97;;
16137;SDS011;8174;43.550;5.206;2022-09-01T03:10:34;5.53;;;4.13;;
16137;SDS011;8174;43.550;5.206;2022-09-01T03:13:06;6.85;;;3.70;;
16137;SDS011;8174;43.550;5.206;2022-09-01T03:15:34;7.03;;;3.72;;
16137;SDS011;8174;43.550;5.206;2022-09-01T03:18:02;4.40;;;3.85;;
16137;SDS011;8174;43.550;5.206;2022-09-01T03:20:30;6.03;;;3.90;;
16137;SDS011;8174;43.550;5.206;2022-09-01T03:23:00;7.82;;;4.28;;
16137;SDS011;8174;43.550;5.206;2022-09-01T03:25:29;6.57;;;4.05;;
16137;SDS011;8174;43.550;5.206;2022-09-01T03:27:58;9.60;;;4.30;;
16137;SDS011;8174;43.550;5.206;2022-09-01T03:30:29;6.82;;;3.80;;
16137;SDS011;8174;43.550;5.206;2022-09-01T03:32:57;9.00;;;4.30;;
16137;SDS011;8174;43.550;5.206;2022-09-01T03:35:25;9.25;;;3.80;;
16137;SDS011;8174;43.550;5.206;2022-09-01T03:37:53;9.02;;;4.25;;
16137;SDS011;8174;43.550;5.206;2022-09-01T03:40:25;6.47;;;4.40;;
16137;SDS011;8174;43.550;5.206;2022-09-01T03:42:56;6.03;;;4.00;;
16137;SDS011;8174;43.550;5.206;2022-09-01T03:45:24;7.32;;;4.70;;
16137;SDS011;8174;43.550;5.206;2022-09-01T03:47:53;6.80;;;4.78;;
16137;SDS011;8174;43.550;5.206;2022-09-01T03:50:22;8.02;;;4.43;;
16137;SDS011;8174;43.550;5.206;2022-09-01T03:52:51;5.53;;;4.45;;
16137;SDS011;8174;43.550;5.206;2022-09-01T03:55:19;9.57;;;6.07;;
16137;SDS011;8174;43.550;5.206;2022-09-01T03:57:49;8.15;;;5.25;;
16137;SDS011;8174;43.550;5.206;2022-09-01T04:00:18;6.95;;;4.95;;
16137;SDS011;8174;43.550;5.206;2022-09-01T04:02:47;6.13;;;4.70;;
16137;SDS011;8174;43.550;5.206;2022-09-01T04:05:16;7.32;;;4.63;;
16137;SDS011;8174;43.550;5.206;2022-09-01T04:07:47;8.65;;;5.07;;
16137;SDS011;8174;43.550;5.206;2022-09-01T04:10:15;9.70;;;7.07;;
16137;SDS011;8174;43.550;5.206;2022-09-01T04:12:43;9.45;;;5.68;;
16137;SDS011;8174;43.550;5.206;2022-09-01T04:15:13;8.60;;;6.07;;
16137;SDS011;8174;43.550;5.206;2022-09-01T04:17:41;6.20;;;4.82;;
16137;SDS011;8174;43.550;5.206;2022-09-01T04:20:26;6.65;;;5.22;;
16137;SDS011;8174;43.550;5.206;2022-09-01T04:22:53;6.28;;;5.25;;
16137;SDS011;8174;43.550;5.206;2022-09-01T04:25:22;7.05;;;5.20;;
16137;SDS011;8174;43.550;5.206;2022-09-01T04:27:51;6.40;;;5.03;;
16137;SDS011;8174;43.550;5.206;2022-09-01T04:30:21;9.80;;;5.28;;
16137;SDS011;8174;43.550;5.206;2022-09-01T04:32:56;6.53;;;4.97;;
16137;SDS011;8174;43.550;5.206;2022-09-01T04:35:23;6.47;;;5.13;;
16137;SDS011;8174;43.550;5.206;2022-09-01T04:37:57;7.15;;;5.32;;
16137;SDS011;8174;43.550;5.206;2022-09-01T04:40:26;11.75;;;5.35;;
16137;SDS011;8174;43.550;5.206;2022-09-01T04:42:53;7.45;;;5.25;;
16137;SDS011;8174;43.550;5.206;2022-09-01T04:45:22;8.07;;;5.80;;
16137;SDS011;8174;43.550;5.206;2022-09-01T04:47:52;11.30;;;5.75;;
16137;SDS011;8174;43.550;5.206;2022-09-01T04:50:19;6.25;;;5.15;;
16137;SDS011;8174;43.550;5.206;2022-09-01T04:52:50;8.68;;;5.28;;
16137;SDS011;8174;43.550;5.206;2022-09-01T04:55:19;7.35;;;5.57;;
16137;SDS011;8174;43.550;5.206;2022-09-01T04:57:47;10.27;;;5.53;;
16137;SDS011;8174;43.550;5.206;2022-09-01T05:00:15;7.25;;;5.78;;
16137;SDS011;8174;43.550;5.206;2022-09-01T05:02:50;8.57;;;5.70;;
16137;SDS011;8174;43.550;5.206;2022-09-01T05:05:18;11.80;;;5.78;;
16137;SDS011;8174;43.550;5.206;2022-09-01T05:07:45;6.45;;;5.40;;
16137;SDS011;8174;43.550;5.206;2022-09-01T05:10:17;7.78;;;6.28;;
16137;SDS011;8174;43.550;5.206;2022-09-01T05:12:45;8.95;;;5.75;;
16137;SDS011;8174;43.550;5.206;2022-09-01T05:15:13;9.82;;;5.68;;
16137;SDS011;8174;43.550;5.206;2022-09-01T05:17:41;13.45;;;6.07;;
16137;SDS011;8174;43.550;5.206;2022-09-01T05:20:11;10.05;;;5.28;;
16137;SDS011;8174;43.550;5.206;2022-09-01T05:22:39;9.10;;;5.80;;
16137;SDS011;8174;43.550;5.206;2022-09-01T05:25:07;9.63;;;5.93;;
16137;SDS011;8174;43.550;5.206;2022-09-01T05:27:39;8.00;;;5.05;;
16137;SDS011;8174;43.550;5.206;2022-09-01T05:30:14;8.73;;;5.50;;
16137;SDS011;8174;43.550;5.206;2022-09-01T05:32:42;14.02;;;5.68;;
16137;SDS011;8174;43.550;5.206;2022-09-01T05:35:13;7.00;;;5.20;;
16137;SDS011;8174;43.550;5.206;2022-09-01T05:37:40;10.48;;;5.47;;
16137;SDS011;8174;43.550;5.206;2022-09-01T05:40:09;10.35;;;5.30;;
16137;SDS011;8174;43.550;5.206;2022-09-01T05:42:40;8.88;;;5.78;;
16137;SDS011;8174;43.550;5.206;2022-09-01T05:45:08;9.85;;;5.90;;
16137;SDS011;8174;43.550;5.206;2022-09-01T05:47:38;10.35;;;5.55;;
16137;SDS011;8174;43.550;5.206;2022-09-01T05:50:06;7.10;;;5.50;;
16137;SDS011;8174;43.550;5.206;2022-09-01T05:52:37;8.50;;;5.03;;
16137;SDS011;8174;43.550;5.206;2022-09-01T05:55:05;6.80;;;5.10;;
16137;SDS011;8174;43.550;5.206;2022-09-01T05:57:34;8.77;;;4.50;;
16137;SDS011;8174;43.550;5.206;2022-09-01T06:00:04;6.28;;;4.32;;
16137;SDS011;8174;43.550;5.206;2022-09-01T06:02:35;11.02;;;4.78;;
16137;SDS011;8174;43.550;5.206;2022-09-01T06:05:04;12.45;;;4.10;;
16137;SDS011;8174;43.550;5.206;2022-09-01T06:07:33;13.30;;;4.25;;
16137;SDS011;8174;43.550;5.206;2022-09-01T06:10:07;5.05;;;3.83;;
16137;SDS011;8174;43.550;5.206;2022-09-01T06:12:34;6.68;;;3.90;;
16137;SDS011;8174;43.550;5.206;2022-09-01T06:15:05;8.48;;;3.85;;
16137;SDS011;8174;43.550;5.206;2022-09-01T06:17:39;5.60;;;3.50;;
16137;SDS011;8174;43.550;5.206;2022-09-01T06:20:08;5.78;;;3.47;;
16137;SDS011;8174;43.550;5.206;2022-09-01T06:22:36;4.82;;;3.40;;
16137;SDS011;8174;43.550;5.206;2022-09-01T06:25:04;4.60;;;3.25;;
16137;SDS011;8174;43.550;5.206;2022-09-01T06:27:35;7.05;;;3.45;;
16137;SDS011;8174;43.550;5.206;2022-09-01T06:30:09;5.93;;;3.13;;
16137;SDS011;8174;43.550;5.206;2022-09-01T06:32:40;5.47;;;3.30;;
16137;SDS011;8174;43.550;5.206;2022-09-01T06:35:09;4.78;;;3.00;;
16137;SDS011;8174;43.550;5.206;2022-09-01T06:37:38;4.80;;;3.10;;
16137;SDS011;8174;43.550;5.206;2022-09-01T06:40:08;5.97;;;3.35;;
16137;SDS011;8174;43.550;5.206;2022-09-01T06:42:43;4.90;;;3.40;;
16137;SDS011;8174;43.550;5.206;2022-09-01T06:45:11;4.95;;;3.40;;
16137;SDS011;8174;43.550;5.206;2022-09-01T06:47:39;7.93;;;3.38;;
16137;SDS011;8174;43.550;5.206;2022-09-01T06:50:09;5.15;;;3.25;;
16137;SDS011;8174;43.550;5.206;2022-09-01T06:52:38;6.68;;;3.20;;
16137;SDS011;8174;43.550;5.206;2022-09-01T06:55:07;6.72;;;3.40;;
16137;SDS011;8174;43.550;5.206;2022-09-01T06:57:35;8.27;;;3.55;;
16137;SDS011;8174;43.550;5.206;2022-09-01T07:00:06;10.07;;;3.20;;
16137;SDS011;8174;43.550;5.206;2022-09-01T07:02:42;5.50;;;3.10;;
16137;SDS011;8174;43.550;5.206;2022-09-01T07:05:09;8.88;;;3.20;;
16137;SDS011;8174;43.550;5.206;2022-09-01T07:07:41;5.07;;;3.40;;
16137;SDS011;8174;43.550;5.206;2022-09-01T07:10:10;5.43;;;3.20;;
16137;SDS011;8174;43.550;5.206;2022-09-01T07:12:39;4.35;;;2.95;;
16137;SDS011;8174;43.550;5.206;2022-09-01T07:15:11;4.65;;;3.00;;
16137;SDS011;8174;43.550;5.206;2022-09-01T07:17:40;11.25;;;2.92;;
16137;SDS011;8174;43.550;5.206;2022-09-01T07:20:08;4.43;;;2.92;;
16137;SDS011;8174;43.550;5.206;2022-09-01T07:22:39;4.43;;;2.97;;
16137;SDS011;8174;43.550;5.206;2022-09-01T07:25:08;4.50;;;3.00;;
16137;SDS011;8174;43.550;5.206;2022-09-01T07:27:36;7.25;;;3.10;;
16137;SDS011;8174;43.550;5.206;2022-09-01T07:30:04;5.70;;;2.90;;
16137;SDS011;8174;43.550;5.206;2022-09-01T07:32:35;7.00;;;3.03;;
16137;SDS011;8174;43.550;5.206;2022-09-01T07:35:07;7.72;;;3.00;;
16137;SDS011;8174;43.550;5.206;2022-09-01T07:37:36;5.75;;;3.10;;
16137;SDS011;8174;43.550;5.206;2022-09-01T07:40:04;6.78;;;3.08;;
16137;SDS011;8174;43.550;5.206;2022-09-01T07:42:32;6.03;;;2.88;;
16137;SDS011;8174;43.550;5.206;2022-09-01T07:45:01;7.35;;;3.00;;
16137;SDS011;8174;43.550;5.206;2022-09-01T07:47:32;5.63;;;2.95;;
16137;SDS011;8174;43.550;5.206;2022-09-01T07:50:02;6.05;;;3.25;;
16137;SDS011;8174;43.550;5.206;2022-09-01T07:52:32;8.20;;;2.78;;
16137;SDS011;8174;43.550;5.206;2022-09-01T07:55:00;4.43;;;2.50;;
16137;SDS011;8174;43.550;5.206;2022-09-01T07:57:29;8.40;;;2.90;;
16137;SDS011;8174;43.550;5.206;2022-09-01T07:59:57;4.88;;;2.90;;
16137;SDS011;8174;43.550;5.206;2022-09-01T08:02:25;6.63;;;2.55;;
16137;SDS011;8174;43.550;5.206;2022-09-01T08:04:53;3.90;;;2.90;;
16137;SDS011;8174;43.550;5.206;2022-09-01T08:07:24;3.88;;;3.03;;
16137;SDS011;8174;43.550;5.206;2022-09-01T08:09:52;8.02;;;3.00;;
16137;SDS011;8174;43.550;5.206;2022-09-01T08:12:21;6.13;;;3.00;;
16137;SDS011;8174;43.550;5.206;2022-09-01T08:14:49;4.25;;;2.80;;
16137;SDS011;8174;43.550;5.206;2022-09-01T08:17:17;4.00;;;2.70;;
16137;SDS011;8174;43.550;5.206;2022-09-01T08:19:45;6.78;;;2.63;;
16137;SDS011;8174;43.550;5.206;2022-09-01T08:22:13;3.97;;;2.28;;
16137;SDS011;8174;43.550;5.206;2022-09-01T08:24:42;4.60;;;2.70;;
16137;SDS011;8174;43.550;5.206;2022-09-01T08:27:10;5.18;;;2.80;;
16137;SDS011;8174;43.550;5.206;2022-09-01T08:29:37;4.47;;;2.60;;
16137;SDS011;8174;43.550;5.206;2022-09-01T08:32:08;4.72;;;2.60;;
16137;SDS011;8174;43.550;5.206;2022-09-01T08:34:36;4.88;;;2.60;;
16137;SDS011;8174;43.550;5.206;2022-09-01T08:37:04;5.80;;;2.58;;
16137;SDS011;8174;43.550;5.206;2022-09-01T08:39:32;7.28;;;2.60;;
16137;SDS011;8174;43.550;5.206;2022-09-01T08:42:03;5.40;;;2.55;;
16137;SDS011;8174;43.550;5.206;2022-09-01T08:44:35;4.55;;;2.40;;
16137;SDS011;8174;43.550;5.206;2022-09-01T08:47:07;4.93;;;2.17;;
16137;SDS011;8174;43.550;5.206;2022-09-01T08:49:36;2.33;;;2.13;;
16137;SDS011;8174;43.550;5.206;2022-09-01T08:52:06;3.28;;;2.40;;
16137;SDS011;8174;43.550;5.206;2022-09-01T08:54:38;5.38;;;2.63;;
16137;SDS011;8174;43.550;5.206;2022-09-01T08:57:13;5.07;;;2.60;;
16137;SDS011;8174;43.550;5.206;2022-09-01T08:59:42;6.82;;;2.58;;
16137;SDS011;8174;43.550;5.206;2022-09-01T09:04:58;4.45;;;2.10;;
16137;SDS011;8174;43.550;5.206;2022-09-01T09:07:33;4.35;;;2.00;;
16137;SDS011;8174;43.550;5.206;2022-09-01T09:10:05;2.80;;;2.15;;
16137;SDS011;8174;43.550;5.206;2022-09-01T09:12:38;4.03;;;2.00;;
16137;SDS011;8174;43.550;5.206;2022-09-01T09:15:19;6.43;;;2.03;;
16137;SDS011;8174;43.550;5.206;2022-09-01T09:17:52;4.22;;;1.90;;
16137;SDS011;8174;43.550;5.206;2022-09-01T09:20:23;4.13;;;2.03;;
16137;SDS011;8174;43.550;5.206;2022-09-01T09:22:51;4.22;;;2.22;;
16137;SDS011;8174;43.550;5.206;2022-09-01T09:25:19;2.17;;;2.00;;
16137;SDS011;8174;43.550;5.206;2022-09-01T09:27:50;5.35;;;2.20;;
16137;SDS011;8174;43.550;5.206;2022-09-01T09:30:19;2.22;;;2.00;;
16137;SDS011;8174;43.550;5.206;2022-09-01T09:32:48;6.10;;;2.00;;
16137;SDS011;8174;43.550;5.206;2022-09-01T09:35:17;4.43;;;2.10;;
16137;SDS011;8174;43.550;5.206;2022-09-01T09:37:45;3.33;;;1.98;;
16137;SDS011;8174;43.550;5.206;2022-09-01T09:40:14;3.08;;;1.85;;
16137;SDS011;8174;43.550;5.206;2022-09-01T09:42:57;4.05;;;2.35;;
16137;SDS011;8174;43.550;5.206;2022-09-01T09:45:29;3.08;;;2.15;;
16137;SDS011;8174;43.550;5.206;2022-09-01T09:47:58;2.55;;;2.00;;
16137;SDS011;8174;43.550;5.206;2022-09-01T09:50:26;2.20;;;1.80;;
16137;SDS011;8174;43.550;5.206;2022-09-01T09:53:09;4.35;;;2.17;;
16137;SDS011;8174;43.550;5.206;2022-09-01T09:55:48;4.35;;;2.10;;
16137;SDS011;8174;43.550;5.206;2022-09-01T09:58:16;3.83;;;2.20;;
16137;SDS011;8174;43.550;5.206;2022-09-01T10:00:57;3.55;;;2.10;;
16137;SDS011;8174;43.550;5.206;2022-09-01T10:03:33;4.85;;;2.00;;
16137;SDS011;8174;43.550;5.206;2022-09-01T10:06:01;3.05;;;2.10;;
16137;SDS011;8174;43.550;5.206;2022-09-01T10:08:36;2.67;;;1.90;;
16137;SDS011;8174;43.550;5.206;2022-09-01T10:11:08;2.10;;;1.90;;
16137;SDS011;8174;43.550;5.206;2022-09-01T10:13:37;3.05;;;2.03;;
16137;SDS011;8174;43.550;5.206;2022-09-01T10:16:08;2.78;;;2.03;;
16137;SDS011;8174;43.550;5.206;2022-09-01T10:18:43;4.75;;;1.98;;
16137;SDS011;8174;43.550;5.206;2022-09-01T10:21:12;4.25;;;2.00;;
16137;SDS011;8174;43.550;5.206;2022-09-01T10:23:41;2.90;;;1.92;;
16137;SDS011;8174;43.550;5.206;2022-09-01T10:26:11;5.38;;;1.90;;
16137;SDS011;8174;43.550;5.206;2022-09-01T10:28:43;3.70;;;1.98;;
16137;SDS011;8174;43.550;5.206;2022-09-01T10:31:15;5.35;;;2.10;;
16137;SDS011;8174;43.550;5.206;2022-09-01T10:33:42;4.43;;;1.83;;
16137;SDS011;8174;43.550;5.206;2022-09-01T10:36:10;3.05;;;2.05;;
16137;SDS011;8174;43.550;5.206;2022-09-01T10:38:38;5.13;;;2.10;;
16137;SDS011;8174;43.550;5.206;2022-09-01T10:41:08;4.85;;;1.95;;
16137;SDS011;8174;43.550;5.206;2022-09-01T10:43:37;6.03;;;2.58;;
16137;SDS011;8174;43.550;5.206;2022-09-01T10:46:07;3.60;;;1.85;;
16137;SDS011;8174;43.550;5.206;2022-09-01T10:48:41;4.22;;;2.10;;
16137;SDS011;8174;43.550;5.206;2022-09-01T10:54:02;2.88;;;1.70;;
16137;SDS011;8174;43.550;5.206;2022-09-01T10:56:36;2.20;;;2.00;;
16137;SDS011;8174;43.550;5.206;2022-09-01T10:59:06;2.45;;;2.22;;
16137;SDS011;8174;43.550;5.206;2022-09-01T11:10:07;5.60;;;1.95;;
16137;SDS011;8174;43.550;5.206;2022-09-01T11:12:44;3.03;;;1.85;;
16137;SDS011;8174;43.550;5.206;2022-09-01T11:15:33;2.10;;;1.90;;
16137;SDS011;8174;43.550;5.206;2022-09-01T11:18:02;4.13;;;1.80;;
16137;SDS011;8174;43.550;5.206;2022-09-01T11:20:35;5.32;;;1.85;;
16137;SDS011;8174;43.550;5.206;2022-09-01T11:23:04;3.22;;;1.88;;
16137;SDS011;8174;43.550;5.206;2022-09-01T11:25:40;5.15;;;1.88;;
16137;SDS011;8174;43.550;5.206;2022-09-01T11:31:01;3.58;;;2.00;;
16137;SDS011;8174;43.550;5.206;2022-09-01T11:33:46;3.72;;;1.92;;
16137;SDS011;8174;43.550;5.206;2022-09-01T11:36:19;2.40;;;2.10;;
16137;SDS011;8174;43.550;5.206;2022-09-01T11:38:50;1.98;;;1.77;;
16137;SDS011;8174;43.550;5.206;2022-09-01T11:41:27;4.22;;;2.10;;
16137;SDS011;8174;43.550;5.206;2022-09-01T11:43:57;3.22;;;2.13;;
16137;SDS011;8174;43.550;5.206;2022-09-01T11:46:26;4.70;;;2.00;;
16137;SDS011;8174;43.550;5.206;2022-09-01T11:48:54;3.38;;;2.00;;
16137;SDS011;8174;43.550;5.206;2022-09-01T11:51:23;5.07;;;2.00;;
16137;SDS011;8174;43.550;5.206;2022-09-01T11:53:51;4.00;;;1.83;;
16137;SDS011;8174;43.550;5.206;2022-09-01T11:56:27;2.30;;;1.85;;
16137;SDS011;8174;43.550;5.206;2022-09-01T11:58:54;2.47;;;1.90;;
16137;SDS011;8174;43.550;5.206;2022-09-01T12:01:23;3.17;;;1.80;;
16137;SDS011;8174;43.550;5.206;2022-09-01T12:03:57;3.95;;;2.00;;
16137;SDS011;8174;43.550;5.206;2022-09-01T12:06:49;6.85;;;2.00;;
16137;SDS011;8174;43.550;5.206;2022-09-01T12:09:17;2.75;;;1.80;;
16137;SDS011;8174;43.550;5.206;2022-09-01T12:11:46;2.25;;;1.90;;
16137;SDS011;8174;43.550;5.206;2022-09-01T12:14:19;3.30;;;1.90;;
16137;SDS011;8174;43.550;5.206;2022-09-01T12:16:54;4.30;;;2.00;;
16137;SDS011;8174;43.550;5.206;2022-09-01T12:19:23;3.78;;;1.95;;
16137;SDS011;8174;43.550;5.206;2022-09-01T12:21:55;2.65;;;1.70;;
16137;SDS011;8174;43.550;5.206;2022-09-01T12:24:23;2.72;;;1.80;;
16137;SDS011;8174;43.550;5.206;2022-09-01T12:26:53;3.90;;;2.10;;
16137;SDS011;8174;43.550;5.206;2022-09-01T12:29:23;4.78;;;2.10;;
16137;SDS011;8174;43.550;5.206;2022-09-01T12:31:52;5.95;;;2.30;;
16137;SDS011;8174;43.550;5.206;2022-09-01T12:34:23;3.00;;;1.70;;
16137;SDS011;8174;43.550;5.206;2022-09-01T12:37:01;3.00;;;1.70;;
16137;SDS011;8174;43.550;5.206;2022-09-01T12:39:31;1.83;;;1.67;;
16137;SDS011;8174;43.550;5.206;2022-09-01T12:42:02;3.22;;;2.10;;
16137;SDS011;8174;43.550;5.206;2022-09-01T12:44:30;3.17;;;2.22;;
16137;SDS011;8174;43.550;5.206;2022-09-01T12:46:59;3.17;;;1.85;;
16137;SDS011;8174;43.550;5.206;2022-09-01T12:49:33;4.53;;;1.80;;
16137;SDS011;8174;43.550;5.206;2022-09-01T12:52:05;5.20;;;1.70;;
16137;SDS011;8174;43.550;5.206;2022-09-01T12:54:35;4.05;;;1.80;;
16137;SDS011;8174;43.550;5.206;2022-09-01T12:57:04;4.47;;;1.80;;
16137;SDS011;8174;43.550;5.206;2022-09-01T12:59:33;3.92;;;1.60;;
16137;SDS011;8174;43.550;5.206;2022-09-01T13:04:46;3.20;;;1.60;;
16137;SDS011;8174;43.550;5.206;2022-09-01T13:07:14;3.67;;;1.65;;
16137;SDS011;8174;43.550;5.206;2022-09-01T13:09:41;3.60;;;1.60;;
16137;SDS011;8174;43.550;5.206;2022-09-01T13:12:11;2.08;;;1.50;;
16137;SDS011;8174;43.550;5.206;2022-09-01T13:14:42;3.38;;;1.90;;
16137;SDS011;8174;43.550;5.206;2022-09-01T13:17:09;3.95;;;1.60;;
16137;SDS011;8174;43.550;5.206;2022-09-01T13:19:37;2.30;;;1.60;;
16137;SDS011;8174;43.550;5.206;2022-09-01T13:22:05;3.22;;;1.73;;
16137;SDS011;8174;43.550;5.206;2022-09-01T13:24:33;4.05;;;1.65;;
16137;SDS011;8174;43.550;5.206;2022-09-01T13:27:00;4.35;;;1.70;;
16137;SDS011;8174;43.550;5.206;2022-09-01T13:29:30;4.95;;;1.80;;
16137;SDS011;8174;43.550;5.206;2022-09-01T13:31:59;2.45;;;1.58;;
16137;SDS011;8174;43.550;5.206;2022-09-01T13:34:27;2.85;;;1.50;;
16137;SDS011;8174;43.550;5.206;2022-09-01T13:36:55;2.10;;;1.58;;
16137;SDS011;8174;43.550;5.206;2022-09-01T13:39:23;2.40;;;1.42;;
16137;SDS011;8174;43.550;5.206;2022-09-01T13:41:51;3.55;;;1.60;;
16137;SDS011;8174;43.550;5.206;2022-09-01T13:44:19;4.55;;;1.60;;
16137;SDS011;8174;43.550;5.206;2022-09-01T13:46:48;2.13;;;1.70;;
16137;SDS011;8174;43.550;5.206;2022-09-01T13:49:16;6.93;;;1.83;;
16137;SDS011;8174;43.550;5.206;2022-09-01T13:51:47;7.93;;;1.70;;
16137;SDS011;8174;43.550;5.206;2022-09-01T13:54:16;3.08;;;1.58;;
16137;SDS011;8174;43.550;5.206;2022-09-01T13:56:47;2.13;;;1.60;;
16137;SDS011;8174;43.550;5.206;2022-09-01T13:59:16;6.00;;;1.90;;
16137;SDS011;8174;43.550;5.206;2022-09-01T14:01:43;2.88;;;1.50;;
16137;SDS011;8174;43.550;5.206;2022-09-01T14:04:12;3.63;;;1.40;;
16137;SDS011;8174;43.550;5.206;2022-09-01T14:06:40;2.22;;;1.50;;
16137;SDS011;8174;43.550;5.206;2022-09-01T14:09:08;6.60;;;1.58;;
16137;SDS011;8174;43.550;5.206;2022-09-01T14:11:36;6.07;;;1.52;;
16137;SDS011;8174;43.550;5.206;2022-09-01T14:14:03;5.97;;;1.50;;
16137;SDS011;8174;43.550;5.206;2022-09-01T14:16:31;3.85;;;1.70;;
16137;SDS011;8174;43.550;5.206;2022-09-01T14:18:58;3.85;;;1.55;;
16137;SDS011;8174;43.550;5.206;2022-09-01T14:21:27;2.88;;;1.33;;
16137;SDS011;8174;43.550;5.206;2022-09-01T14:23:55;1.90;;;1.30;;
16137;SDS011;8174;43.550;5.206;2022-09-01T14:26:22;2.20;;;1.60;;
16137;SDS011;8174;43.550;5.206;2022-09-01T14:28:51;7.45;;;1.60;;
16137;SDS011;8174;43.550;5.206;2022-09-01T14:31:19;2.40;;;1.20;;
16137;SDS011;8174;43.550;5.206;2022-09-01T14:33:47;3.22;;;1.70;;
16137;SDS011;8174;43.550;5.206;2022-09-01T14:36:16;2.95;;;1.67;;
16137;SDS011;8174;43.550;5.206;2022-09-01T14:38:45;1.70;;;1.50;;
16137;SDS011;8174;43.550;5.206;2022-09-01T14:41:13;7.82;;;1.42;;
16137;SDS011;8174;43.550;5.206;2022-09-01T14:43:42;4.63;;;1.50;;
16137;SDS011;8174;43.550;5.206;2022-09-01T14:46:09;1.98;;;1.30;;
16137;SDS011;8174;43.550;5.206;2022-09-01T14:48:38;3.63;;;1.40;;
16137;SDS011;8174;43.550;5.206;2022-09-01T14:51:06;2.13;;;1.33;;
16137;SDS011;8174;43.550;5.206;2022-09-01T14:53:34;1.40;;;1.20;;
16137;SDS011;8174;43.550;5.206;2022-09-01T14:56:03;1.80;;;1.30;;
16137;SDS011;8174;43.550;5.206;2022-09-01T14:58:31;4.03;;;1.25;;
16137;SDS011;8174;43.550;5.206;2022-09-01T15:00:58;4.32;;;1.40;;
16137;SDS011;8174;43.550;5.206;2022-09-01T15:03:26;3.45;;;1.25;;
16137;SDS011;8174;43.550;5.206;2022-09-01T15:05:53;4.45;;;1.50;;
16137;SDS011;8174;43.550;5.206;2022-09-01T15:08:21;5.25;;;1.50;;
16137;SDS011;8174;43.550;5.206;2022-09-01T15:10:49;4.82;;;1.40;;
16137;SDS011;8174;43.550;5.206;2022-09-01T15:13:18;2.42;;;1.30;;
16137;SDS011;8174;43.550;5.206;2022-09-01T15:15:45;5.00;;;1.90;;
16137;SDS011;8174;43.550;5.206;2022-09-01T15:18:13;3.90;;;1.55;;
16137;SDS011;8174;43.550;5.206;2022-09-01T15:20:40;3.67;;;1.48;;
16137;SDS011;8174;43.550;5.206;2022-09-01T15:23:13;1.77;;;1.20;;
16137;SDS011;8174;43.550;5.206;2022-09-01T15:25:41;2.40;;;1.25;;
16137;SDS011;8174;43.550;5.206;2022-09-01T15:28:08;4.63;;;1.50;;
16137;SDS011;8174;43.550;5.206;2022-09-01T15:30:38;4.38;;;1.70;;
16137;SDS011;8174;43.550;5.206;2022-09-01T15:33:06;2.47;;;1.60;;
16137;SDS011;8174;43.550;5.206;2022-09-01T15:35:34;3.38;;;1.60;;